sensor_id;sensor_type;location;lat;lon;timestamp;P1;durP1;ratioP1;P2;durP2;ratioP2
76039;SDS011;64736;50.462;4.850;2023-08-20T00:01:26;8.65;;;4.40;;
76039;SDS011;64736;50.462;4.850;2023-08-20T00:03:53;7.78;;;4.13;;
76039;SDS011;64736;50.462;4.850;2023-08-20T00:06:19;7.45;;;3.95;;
76039;SDS011;64736;50.462;4.850;2023-08-20T00:08:46;7.57;;;4.15;;
76039;SDS011;64736;50.462;4.850;2023-08-20T00:11:12;7.60;;;4.07;;
76039;SDS011;64736;50.462;4.850;2023-08-20T00:13:39;7.80;;;3.88;;
76039;SDS011;64736;50.462;4.850;2023-08-20T00:16:05;8.80;;;4.35;;
76039;SDS011;64736;50.462;4.850;2023-08-20T00:18:31;6.82;;;3.95;;
76039;SDS011;64736;50.462;4.850;2023-08-20T00:20:58;7.18;;;3.47;;
76039;SDS011;64736;50.462;4.850;2023-08-20T00:23:25;7.47;;;3.58;;
76039;SDS011;64736;50.462;4.850;2023-08-20T00:25:51;5.55;;;3.20;;
76039;SDS011;64736;50.462;4.850;2023-08-20T00:28:18;9.27;;;3.63;;
76039;SDS011;64736;50.462;4.850;2023-08-20T00:30:44;6.93;;;3.20;;
76039;SDS011;64736;50.462;4.850;2023-08-20T00:33:10;6.53;;;3.10;;
76039;SDS011;64736;50.462;4.850;2023-08-20T00:35:36;6.38;;;3.40;;
76039;SDS011;64736;50.462;4.850;2023-08-20T00:38:01;5.88;;;3.22;;
76039;SDS011;64736;50.462;4.850;2023-08-20T00:40:28;7.78;;;3.88;;
76039;SDS011;64736;50.462;4.850;2023-08-20T00:42:53;5.60;;;3.05;;
76039;SDS011;64736;50.462;4.850;2023-08-20T00:45:19;8.13;;;3.53;;
76039;SDS011;64736;50.462;4.850;2023-08-20T00:47:45;7.38;;;3.03;;
76039;SDS011;64736;50.462;4.850;2023-08-20T00:50:11;6.57;;;3.10;;
76039;SDS011;64736;50.462;4.850;2023-08-20T00:52:37;6.22;;;3.47;;
76039;SDS011;64736;50.462;4.850;2023-08-20T00:55:10;6.57;;;3.17;;
76039;SDS011;64736;50.462;4.850;2023-08-20T00:57:38;7.82;;;3.22;;
76039;SDS011;64736;50.462;4.850;2023-08-20T01:00:05;8.77;;;2.85;;
76039;SDS011;64736;50.462;4.850;2023-08-20T01:02:33;10.02;;;3.35;;
76039;SDS011;64736;50.462;4.850;2023-08-20T01:04:59;5.72;;;3.15;;
76039;SDS011;64736;50.462;4.850;2023-08-20T01:13:16;7.30;;;3.33;;
76039;SDS011;64736;50.462;4.850;2023-08-20T01:15:42;8.38;;;3.55;;
76039;SDS011;64736;50.462;4.850;2023-08-20T01:18:08;6.78;;;2.83;;
76039;SDS011;64736;50.462;4.850;2023-08-20T01:20:35;8.57;;;3.45;;
76039;SDS011;64736;50.462;4.850;2023-08-20T01:28:44;6.78;;;3.03;;
76039;SDS011;64736;50.462;4.850;2023-08-20T01:31:10;6.00;;;3.55;;
76039;SDS011;64736;50.462;4.850;2023-08-20T01:33:37;6.75;;;3.30;;
76039;SDS011;64736;50.462;4.850;2023-08-20T01:36:06;8.18;;;3.30;;
76039;SDS011;64736;50.462;4.850;2023-08-20T01:38:36;7.90;;;3.72;;
76039;SDS011;64736;50.462;4.850;2023-08-20T01:41:03;8.27;;;3.25;;
76039;SDS011;64736;50.462;4.850;2023-08-20T01:43:29;8.38;;;3.50;;
76039;SDS011;64736;50.462;4.850;2023-08-20T01:45:55;7.03;;;2.78;;
76039;SDS011;64736;50.462;4.850;2023-08-20T01:48:21;9.10;;;3.42;;
76039;SDS011;64736;50.462;4.850;2023-08-20T01:50:47;8.32;;;4.55;;
76039;SDS011;64736;50.462;4.850;2023-08-20T01:53:13;9.35;;;3.40;;
76039;SDS011;64736;50.462;4.850;2023-08-20T01:55:39;7.03;;;2.75;;
76039;SDS011;64736;50.462;4.850;2023-08-20T01:58:05;7.60;;;2.70;;
76039;SDS011;64736;50.462;4.850;2023-08-20T02:00:31;8.80;;;3.00;;
76039;SDS011;64736;50.462;4.850;2023-08-20T02:02:59;8.10;;;3.25;;
76039;SDS011;64736;50.462;4.850;2023-08-20T02:05:25;6.65;;;2.85;;
76039;SDS011;64736;50.462;4.850;2023-08-20T02:07:51;8.52;;;3.03;;
76039;SDS011;64736;50.462;4.850;2023-08-20T02:10:16;6.28;;;2.90;;
76039;SDS011;64736;50.462;4.850;2023-08-20T02:12:42;7.60;;;3.45;;
76039;SDS011;64736;50.462;4.850;2023-08-20T02:15:08;9.68;;;3.10;;
76039;SDS011;64736;50.462;4.850;2023-08-20T02:17:36;7.45;;;3.08;;
76039;SDS011;64736;50.462;4.850;2023-08-20T02:20:02;8.60;;;3.30;;
76039;SDS011;64736;50.462;4.850;2023-08-20T02:22:37;6.47;;;3.78;;
76039;SDS011;64736;50.462;4.850;2023-08-20T02:25:03;6.90;;;3.42;;
76039;SDS011;64736;50.462;4.850;2023-08-20T02:27:29;6.63;;;3.42;;
76039;SDS011;64736;50.462;4.850;2023-08-20T02:29:55;8.75;;;4.40;;
76039;SDS011;64736;50.462;4.850;2023-08-20T02:32:21;6.03;;;3.67;;
76039;SDS011;64736;50.462;4.850;2023-08-20T02:34:50;7.50;;;3.67;;
76039;SDS011;64736;50.462;4.850;2023-08-20T02:37:17;7.55;;;3.50;;
76039;SDS011;64736;50.462;4.850;2023-08-20T02:39:42;7.05;;;3.55;;
76039;SDS011;64736;50.462;4.850;2023-08-20T02:42:08;7.00;;;3.72;;
76039;SDS011;64736;50.462;4.850;2023-08-20T02:44:34;7.32;;;3.30;;
76039;SDS011;64736;50.462;4.850;2023-08-20T02:47:00;6.43;;;3.70;;
76039;SDS011;64736;50.462;4.850;2023-08-20T02:49:25;5.25;;;3.38;;
76039;SDS011;64736;50.462;4.850;2023-08-20T02:51:51;8.20;;;3.60;;
76039;SDS011;64736;50.462;4.850;2023-08-20T02:54:17;8.65;;;3.58;;
76039;SDS011;64736;50.462;4.850;2023-08-20T02:56:42;6.80;;;2.90;;
76039;SDS011;64736;50.462;4.850;2023-08-20T02:59:08;8.43;;;3.00;;
76039;SDS011;64736;50.462;4.850;2023-08-20T03:01:34;9.30;;;3.22;;
76039;SDS011;64736;50.462;4.850;2023-08-20T03:04:00;11.38;;;3.22;;
76039;SDS011;64736;50.462;4.850;2023-08-20T03:06:25;8.05;;;3.97;;
76039;SDS011;64736;50.462;4.850;2023-08-20T03:08:51;8.23;;;2.55;;
76039;SDS011;64736;50.462;4.850;2023-08-20T03:11:17;8.27;;;2.92;;
76039;SDS011;64736;50.462;4.850;2023-08-20T03:13:44;9.43;;;3.22;;
76039;SDS011;64736;50.462;4.850;2023-08-20T03:16:10;8.73;;;3.05;;
76039;SDS011;64736;50.462;4.850;2023-08-20T03:18:36;9.13;;;3.80;;
76039;SDS011;64736;50.462;4.850;2023-08-20T03:21:02;7.00;;;3.35;;
76039;SDS011;64736;50.462;4.850;2023-08-20T03:23:28;6.75;;;3.65;;
76039;SDS011;64736;50.462;4.850;2023-08-20T03:25:57;8.60;;;3.83;;
76039;SDS011;64736;50.462;4.850;2023-08-20T03:28:24;6.75;;;4.47;;
76039;SDS011;64736;50.462;4.850;2023-08-20T03:30:50;9.18;;;4.28;;
76039;SDS011;64736;50.462;4.850;2023-08-20T03:33:15;9.55;;;4.40;;
76039;SDS011;64736;50.462;4.850;2023-08-20T03:35:42;7.25;;;3.10;;
76039;SDS011;64736;50.462;4.850;2023-08-20T03:38:08;7.38;;;3.30;;
76039;SDS011;64736;50.462;4.850;2023-08-20T03:40:34;6.45;;;3.65;;
76039;SDS011;64736;50.462;4.850;2023-08-20T03:42:59;8.57;;;3.92;;
76039;SDS011;64736;50.462;4.850;2023-08-20T03:45:26;7.43;;;3.55;;
76039;SDS011;64736;50.462;4.850;2023-08-20T03:47:51;7.93;;;4.72;;
76039;SDS011;64736;50.462;4.850;2023-08-20T03:50:17;8.27;;;3.60;;
76039;SDS011;64736;50.462;4.850;2023-08-20T03:52:43;9.88;;;4.10;;
76039;SDS011;64736;50.462;4.850;2023-08-20T03:55:09;8.07;;;4.03;;
76039;SDS011;64736;50.462;4.850;2023-08-20T03:57:34;6.32;;;3.75;;
76039;SDS011;64736;50.462;4.850;2023-08-20T04:00:00;9.82;;;3.92;;
76039;SDS011;64736;50.462;4.850;2023-08-20T04:02:26;9.07;;;4.35;;
76039;SDS011;64736;50.462;4.850;2023-08-20T04:04:51;7.78;;;4.47;;
76039;SDS011;64736;50.462;4.850;2023-08-20T04:07:17;7.60;;;4.10;;
76039;SDS011;64736;50.462;4.850;2023-08-20T04:09:43;7.32;;;4.50;;
76039;SDS011;64736;50.462;4.850;2023-08-20T04:12:09;8.00;;;4.45;;
76039;SDS011;64736;50.462;4.850;2023-08-20T04:14:35;7.68;;;3.90;;
76039;SDS011;64736;50.462;4.850;2023-08-20T04:17:00;6.57;;;3.30;;
76039;SDS011;64736;50.462;4.850;2023-08-20T04:19:26;7.38;;;3.47;;
76039;SDS011;64736;50.462;4.850;2023-08-20T04:21:52;7.97;;;3.22;;
76039;SDS011;64736;50.462;4.850;2023-08-20T04:24:17;6.90;;;3.40;;
76039;SDS011;64736;50.462;4.850;2023-08-20T04:26:43;7.68;;;3.30;;
76039;SDS011;64736;50.462;4.850;2023-08-20T04:29:09;8.55;;;3.47;;
76039;SDS011;64736;50.462;4.850;2023-08-20T04:31:35;5.20;;;3.50;;
76039;SDS011;64736;50.462;4.850;2023-08-20T04:34:01;8.35;;;3.33;;
76039;SDS011;64736;50.462;4.850;2023-08-20T04:36:26;6.18;;;3.30;;
76039;SDS011;64736;50.462;4.850;2023-08-20T04:38:52;7.18;;;3.63;;
76039;SDS011;64736;50.462;4.850;2023-08-20T04:41:18;6.53;;;3.13;;
76039;SDS011;64736;50.462;4.850;2023-08-20T04:43:44;6.53;;;3.60;;
76039;SDS011;64736;50.462;4.850;2023-08-20T04:46:09;6.88;;;3.40;;
76039;SDS011;64736;50.462;4.850;2023-08-20T04:48:35;7.40;;;3.83;;
76039;SDS011;64736;50.462;4.850;2023-08-20T04:51:01;7.32;;;3.28;;
76039;SDS011;64736;50.462;4.850;2023-08-20T04:53:27;6.43;;;3.00;;
76039;SDS011;64736;50.462;4.850;2023-08-20T04:55:52;6.35;;;3.40;;
76039;SDS011;64736;50.462;4.850;2023-08-20T04:58:18;7.57;;;3.42;;
76039;SDS011;64736;50.462;4.850;2023-08-20T05:00:44;7.80;;;3.47;;
76039;SDS011;64736;50.462;4.850;2023-08-20T05:03:09;7.10;;;3.50;;
76039;SDS011;64736;50.462;4.850;2023-08-20T05:05:35;5.78;;;3.28;;
76039;SDS011;64736;50.462;4.850;2023-08-20T05:08:01;7.47;;;4.07;;
76039;SDS011;64736;50.462;4.850;2023-08-20T05:10:27;6.00;;;3.40;;
76039;SDS011;64736;50.462;4.850;2023-08-20T05:12:53;9.30;;;3.50;;
76039;SDS011;64736;50.462;4.850;2023-08-20T05:15:19;7.07;;;3.17;;
76039;SDS011;64736;50.462;4.850;2023-08-20T05:17:45;7.45;;;3.75;;
76039;SDS011;64736;50.462;4.850;2023-08-20T05:20:11;8.25;;;3.28;;
76039;SDS011;64736;50.462;4.850;2023-08-20T05:22:37;9.80;;;3.70;;
76039;SDS011;64736;50.462;4.850;2023-08-20T05:25:02;6.28;;;3.40;;
76039;SDS011;64736;50.462;4.850;2023-08-20T05:27:28;9.77;;;3.70;;
76039;SDS011;64736;50.462;4.850;2023-08-20T05:29:54;7.38;;;3.40;;
76039;SDS011;64736;50.462;4.850;2023-08-20T05:32:20;6.95;;;3.60;;
76039;SDS011;64736;50.462;4.850;2023-08-20T05:34:46;7.53;;;3.40;;
76039;SDS011;64736;50.462;4.850;2023-08-20T05:37:11;9.13;;;3.92;;
76039;SDS011;64736;50.462;4.850;2023-08-20T05:39:40;5.70;;;3.28;;
76039;SDS011;64736;50.462;4.850;2023-08-20T05:42:08;6.25;;;3.30;;
76039;SDS011;64736;50.462;4.850;2023-08-20T05:44:34;7.65;;;3.47;;
76039;SDS011;64736;50.462;4.850;2023-08-20T05:47:00;7.32;;;3.28;;
76039;SDS011;64736;50.462;4.850;2023-08-20T05:49:26;7.43;;;3.80;;
76039;SDS011;64736;50.462;4.850;2023-08-20T05:51:52;10.77;;;3.47;;
76039;SDS011;64736;50.462;4.850;2023-08-20T05:54:18;6.65;;;3.63;;
76039;SDS011;64736;50.462;4.850;2023-08-20T05:56:44;6.45;;;3.58;;
76039;SDS011;64736;50.462;4.850;2023-08-20T05:59:10;7.53;;;3.65;;
76039;SDS011;64736;50.462;4.850;2023-08-20T06:01:36;7.50;;;3.72;;
76039;SDS011;64736;50.462;4.850;2023-08-20T06:04:01;10.50;;;3.95;;
76039;SDS011;64736;50.462;4.850;2023-08-20T06:06:27;7.28;;;4.13;;
76039;SDS011;64736;50.462;4.850;2023-08-20T06:08:53;8.15;;;4.20;;
76039;SDS011;64736;50.462;4.850;2023-08-20T06:11:19;10.30;;;4.38;;
76039;SDS011;64736;50.462;4.850;2023-08-20T06:13:45;8.32;;;4.35;;
76039;SDS011;64736;50.462;4.850;2023-08-20T06:16:11;8.07;;;4.20;;
76039;SDS011;64736;50.462;4.850;2023-08-20T06:18:37;7.05;;;3.85;;
76039;SDS011;64736;50.462;4.850;2023-08-20T06:21:03;6.55;;;3.88;;
76039;SDS011;64736;50.462;4.850;2023-08-20T06:23:29;8.13;;;3.70;;
76039;SDS011;64736;50.462;4.850;2023-08-20T06:25:55;8.32;;;4.35;;
76039;SDS011;64736;50.462;4.850;2023-08-20T06:28:21;6.75;;;3.33;;
76039;SDS011;64736;50.462;4.850;2023-08-20T06:30:46;9.52;;;3.75;;
76039;SDS011;64736;50.462;4.850;2023-08-20T06:33:12;7.78;;;4.00;;
76039;SDS011;64736;50.462;4.850;2023-08-20T06:35:38;10.68;;;4.10;;
76039;SDS011;64736;50.462;4.850;2023-08-20T06:38:04;6.78;;;3.55;;
76039;SDS011;64736;50.462;4.850;2023-08-20T06:40:30;7.28;;;3.55;;
76039;SDS011;64736;50.462;4.850;2023-08-20T06:42:56;6.75;;;3.67;;
76039;SDS011;64736;50.462;4.850;2023-08-20T06:45:22;9.75;;;4.00;;
76039;SDS011;64736;50.462;4.850;2023-08-20T06:47:48;6.28;;;3.40;;
76039;SDS011;64736;50.462;4.850;2023-08-20T06:50:13;6.57;;;3.58;;
76039;SDS011;64736;50.462;4.850;2023-08-20T06:52:39;9.55;;;5.30;;
76039;SDS011;64736;50.462;4.850;2023-08-20T06:55:05;7.80;;;3.30;;
76039;SDS011;64736;50.462;4.850;2023-08-20T06:57:30;7.20;;;3.60;;
76039;SDS011;64736;50.462;4.850;2023-08-20T06:59:56;6.38;;;3.33;;
76039;SDS011;64736;50.462;4.850;2023-08-20T07:02:22;6.57;;;3.65;;
76039;SDS011;64736;50.462;4.850;2023-08-20T07:04:48;10.50;;;4.68;;
76039;SDS011;64736;50.462;4.850;2023-08-20T07:07:13;12.48;;;5.90;;
76039;SDS011;64736;50.462;4.850;2023-08-20T07:09:40;9.63;;;4.38;;
76039;SDS011;64736;50.462;4.850;2023-08-20T07:12:06;9.52;;;4.35;;
76039;SDS011;64736;50.462;4.850;2023-08-20T07:14:32;9.23;;;3.47;;
76039;SDS011;64736;50.462;4.850;2023-08-20T07:16:58;11.20;;;3.97;;
76039;SDS011;64736;50.462;4.850;2023-08-20T07:19:25;10.32;;;5.22;;
76039;SDS011;64736;50.462;4.850;2023-08-20T07:21:50;9.70;;;5.00;;
76039;SDS011;64736;50.462;4.850;2023-08-20T07:24:16;9.48;;;4.95;;
76039;SDS011;64736;50.462;4.850;2023-08-20T07:26:42;10.05;;;4.90;;
76039;SDS011;64736;50.462;4.850;2023-08-20T07:29:09;9.25;;;4.93;;
76039;SDS011;64736;50.462;4.850;2023-08-20T07:31:35;9.82;;;5.30;;
76039;SDS011;64736;50.462;4.850;2023-08-20T07:34:03;9.85;;;4.40;;
76039;SDS011;64736;50.462;4.850;2023-08-20T07:36:29;10.75;;;4.88;;
76039;SDS011;64736;50.462;4.850;2023-08-20T07:38:55;10.20;;;5.70;;
76039;SDS011;64736;50.462;4.850;2023-08-20T07:41:20;12.23;;;5.20;;
76039;SDS011;64736;50.462;4.850;2023-08-20T07:43:47;9.13;;;4.90;;
76039;SDS011;64736;50.462;4.850;2023-08-20T07:46:14;12.23;;;5.68;;
76039;SDS011;64736;50.462;4.850;2023-08-20T07:48:40;9.45;;;5.10;;
76039;SDS011;64736;50.462;4.850;2023-08-20T07:51:06;10.50;;;5.15;;
76039;SDS011;64736;50.462;4.850;2023-08-20T07:53:32;11.55;;;6.57;;
76039;SDS011;64736;50.462;4.850;2023-08-20T07:56:00;11.98;;;5.50;;
76039;SDS011;64736;50.462;4.850;2023-08-20T07:58:26;11.05;;;5.65;;
76039;SDS011;64736;50.462;4.850;2023-08-20T08:00:53;11.50;;;5.53;;
76039;SDS011;64736;50.462;4.850;2023-08-20T08:03:20;10.40;;;5.80;;
76039;SDS011;64736;50.462;4.850;2023-08-20T08:05:49;11.70;;;5.50;;
76039;SDS011;64736;50.462;4.850;2023-08-20T08:08:16;13.70;;;5.53;;
76039;SDS011;64736;50.462;4.850;2023-08-20T08:10:42;10.32;;;5.40;;
76039;SDS011;64736;50.462;4.850;2023-08-20T08:13:13;9.30;;;4.88;;
76039;SDS011;64736;50.462;4.850;2023-08-20T08:15:40;10.15;;;5.15;;
76039;SDS011;64736;50.462;4.850;2023-08-20T08:18:06;12.60;;;5.57;;
76039;SDS011;64736;50.462;4.850;2023-08-20T08:20:32;9.10;;;4.85;;
76039;SDS011;64736;50.462;4.850;2023-08-20T08:22:58;13.50;;;6.35;;
76039;SDS011;64736;50.462;4.850;2023-08-20T08:25:25;9.18;;;5.53;;
76039;SDS011;64736;50.462;4.850;2023-08-20T08:27:51;9.30;;;5.40;;
76039;SDS011;64736;50.462;4.850;2023-08-20T08:30:17;11.35;;;5.57;;
76039;SDS011;64736;50.462;4.850;2023-08-20T08:32:43;8.50;;;5.45;;
76039;SDS011;64736;50.462;4.850;2023-08-20T08:35:08;9.20;;;5.25;;
76039;SDS011;64736;50.462;4.850;2023-08-20T08:37:34;11.07;;;5.15;;
76039;SDS011;64736;50.462;4.850;2023-08-20T08:40:00;11.25;;;5.13;;
76039;SDS011;64736;50.462;4.850;2023-08-20T08:42:26;9.07;;;4.88;;
76039;SDS011;64736;50.462;4.850;2023-08-20T08:44:52;9.85;;;5.30;;
76039;SDS011;64736;50.462;4.850;2023-08-20T08:47:18;10.07;;;5.80;;
76039;SDS011;64736;50.462;4.850;2023-08-20T08:49:47;8.80;;;4.78;;
76039;SDS011;64736;50.462;4.850;2023-08-20T08:52:13;11.52;;;6.18;;
76039;SDS011;64736;50.462;4.850;2023-08-20T08:54:39;9.32;;;5.55;;
76039;SDS011;64736;50.462;4.850;2023-08-20T08:57:05;10.82;;;5.53;;
76039;SDS011;64736;50.462;4.850;2023-08-20T08:59:32;11.85;;;5.90;;
76039;SDS011;64736;50.462;4.850;2023-08-20T09:01:58;11.60;;;7.10;;
76039;SDS011;64736;50.462;4.850;2023-08-20T09:04:23;10.90;;;5.88;;
76039;SDS011;64736;50.462;4.850;2023-08-20T09:09:16;9.90;;;5.50;;
76039;SDS011;64736;50.462;4.850;2023-08-20T09:11:43;10.38;;;5.00;;
76039;SDS011;64736;50.462;4.850;2023-08-20T09:16:53;8.35;;;5.35;;
76039;SDS011;64736;50.462;4.850;2023-08-20T09:19:35;11.20;;;5.82;;
76039;SDS011;64736;50.462;4.850;2023-08-20T09:22:04;9.20;;;5.97;;
76039;SDS011;64736;50.462;4.850;2023-08-20T09:24:40;11.25;;;5.32;;
76039;SDS011;64736;50.462;4.850;2023-08-20T09:27:08;11.13;;;5.57;;
76039;SDS011;64736;50.462;4.850;2023-08-20T09:29:43;9.82;;;5.30;;
76039;SDS011;64736;50.462;4.850;2023-08-20T09:32:16;8.98;;;5.03;;
76039;SDS011;64736;50.462;4.850;2023-08-20T09:34:43;8.35;;;4.95;;
76039;SDS011;64736;50.462;4.850;2023-08-20T09:37:13;7.72;;;4.72;;
76039;SDS011;64736;50.462;4.850;2023-08-20T09:39:39;8.55;;;4.95;;
76039;SDS011;64736;50.462;4.850;2023-08-20T09:42:06;9.02;;;4.57;;
76039;SDS011;64736;50.462;4.850;2023-08-20T09:44:33;6.70;;;4.15;;
76039;SDS011;64736;50.462;4.850;2023-08-20T09:47:06;9.32;;;4.80;;
76039;SDS011;64736;50.462;4.850;2023-08-20T09:49:46;9.20;;;4.63;;
76039;SDS011;64736;50.462;4.850;2023-08-20T09:52:17;7.10;;;4.65;;
76039;SDS011;64736;50.462;4.850;2023-08-20T09:55:09;7.85;;;5.13;;
76039;SDS011;64736;50.462;4.850;2023-08-20T09:57:41;8.45;;;4.50;;
76039;SDS011;64736;50.462;4.850;2023-08-20T10:00:08;8.10;;;4.82;;
76039;SDS011;64736;50.462;4.850;2023-08-20T10:02:35;10.37;;;5.60;;
76039;SDS011;64736;50.462;4.850;2023-08-20T10:05:06;7.95;;;4.88;;
76039;SDS011;64736;50.462;4.850;2023-08-20T10:07:33;6.72;;;4.38;;
76039;SDS011;64736;50.462;4.850;2023-08-20T10:10:04;7.97;;;5.15;;
76039;SDS011;64736;50.462;4.850;2023-08-20T10:12:31;7.53;;;4.03;;
76039;SDS011;64736;50.462;4.850;2023-08-20T10:14:58;8.25;;;4.10;;
76039;SDS011;64736;50.462;4.850;2023-08-20T10:17:25;8.50;;;3.97;;
76039;SDS011;64736;50.462;4.850;2023-08-20T10:19:51;7.05;;;4.15;;
76039;SDS011;64736;50.462;4.850;2023-08-20T10:22:19;7.07;;;4.00;;
76039;SDS011;64736;50.462;4.850;2023-08-20T10:24:49;6.53;;;4.05;;
76039;SDS011;64736;50.462;4.850;2023-08-20T10:27:35;8.32;;;4.22;;
76039;SDS011;64736;50.462;4.850;2023-08-20T10:30:24;8.40;;;4.40;;
76039;SDS011;64736;50.462;4.850;2023-08-20T10:32:53;8.20;;;4.18;;
76039;SDS011;64736;50.462;4.850;2023-08-20T10:38:12;9.73;;;5.28;;
76039;SDS011;64736;50.462;4.850;2023-08-20T10:40:58;9.10;;;5.82;;
76039;SDS011;64736;50.462;4.850;2023-08-20T10:43:30;6.45;;;4.63;;
76039;SDS011;64736;50.462;4.850;2023-08-20T10:46:13;9.73;;;4.47;;
76039;SDS011;64736;50.462;4.850;2023-08-20T10:48:41;8.18;;;5.07;;
76039;SDS011;64736;50.462;4.850;2023-08-20T10:56:46;7.43;;;3.72;;
76039;SDS011;64736;50.462;4.850;2023-08-20T10:59:21;7.95;;;4.20;;
76039;SDS011;64736;50.462;4.850;2023-08-20T11:01:52;5.70;;;3.10;;
76039;SDS011;64736;50.462;4.850;2023-08-20T11:04:19;7.97;;;3.90;;
76039;SDS011;64736;50.462;4.850;2023-08-20T11:06:46;7.10;;;3.57;;
76039;SDS011;64736;50.462;4.850;2023-08-20T11:09:23;8.52;;;4.35;;
76039;SDS011;64736;50.462;4.850;2023-08-20T11:11:51;6.83;;;3.60;;
76039;SDS011;64736;50.462;4.850;2023-08-20T11:14:17;7.10;;;4.20;;
76039;SDS011;64736;50.462;4.850;2023-08-20T11:16:44;6.55;;;3.45;;
76039;SDS011;64736;50.462;4.850;2023-08-20T11:19:10;6.25;;;3.47;;
76039;SDS011;64736;50.462;4.850;2023-08-20T11:21:40;8.40;;;3.33;;
76039;SDS011;64736;50.462;4.850;2023-08-20T11:24:07;7.45;;;3.92;;
76039;SDS011;64736;50.462;4.850;2023-08-20T11:26:34;6.35;;;3.42;;
76039;SDS011;64736;50.462;4.850;2023-08-20T11:29:01;5.35;;;2.78;;
76039;SDS011;64736;50.462;4.850;2023-08-20T11:31:37;7.13;;;3.47;;
76039;SDS011;64736;50.462;4.850;2023-08-20T11:34:04;6.70;;;3.47;;
76039;SDS011;64736;50.462;4.850;2023-08-20T11:36:32;5.82;;;3.40;;
76039;SDS011;64736;50.462;4.850;2023-08-20T11:38:58;4.50;;;3.22;;
76039;SDS011;64736;50.462;4.850;2023-08-20T11:41:24;7.00;;;3.67;;
76039;SDS011;64736;50.462;4.850;2023-08-20T11:43:51;5.95;;;3.30;;
76039;SDS011;64736;50.462;4.850;2023-08-20T11:46:21;8.40;;;4.32;;
76039;SDS011;64736;50.462;4.850;2023-08-20T11:49:01;9.10;;;4.75;;
76039;SDS011;64736;50.462;4.850;2023-08-20T11:51:41;8.23;;;5.47;;
76039;SDS011;64736;50.462;4.850;2023-08-20T11:54:09;6.05;;;3.63;;
76039;SDS011;64736;50.462;4.850;2023-08-20T11:56:43;5.82;;;3.05;;
76039;SDS011;64736;50.462;4.850;2023-08-20T11:59:10;8.15;;;3.20;;
76039;SDS011;64736;50.462;4.850;2023-08-20T12:01:37;6.00;;;2.67;;
76039;SDS011;64736;50.462;4.850;2023-08-20T12:04:03;5.43;;;2.85;;
76039;SDS011;64736;50.462;4.850;2023-08-20T12:06:29;6.50;;;3.03;;
76039;SDS011;64736;50.462;4.850;2023-08-20T12:08:56;4.82;;;2.67;;
76039;SDS011;64736;50.462;4.850;2023-08-20T12:11:23;6.28;;;2.85;;
76039;SDS011;64736;50.462;4.850;2023-08-20T12:13:53;4.47;;;2.67;;
76039;SDS011;64736;50.462;4.850;2023-08-20T12:16:21;6.68;;;2.53;;
76039;SDS011;64736;50.462;4.850;2023-08-20T12:18:48;5.13;;;2.53;;
76039;SDS011;64736;50.462;4.850;2023-08-20T12:21:14;6.20;;;2.83;;
76039;SDS011;64736;50.462;4.850;2023-08-20T12:23:40;5.20;;;2.30;;
76039;SDS011;64736;50.462;4.850;2023-08-20T12:26:06;6.05;;;2.45;;
76039;SDS011;64736;50.462;4.850;2023-08-20T12:28:35;4.38;;;2.00;;
76039;SDS011;64736;50.462;4.850;2023-08-20T12:31:01;5.65;;;2.50;;
76039;SDS011;64736;50.462;4.850;2023-08-20T12:33:28;6.75;;;2.60;;
76039;SDS011;64736;50.462;4.850;2023-08-20T12:35:54;5.43;;;2.40;;
76039;SDS011;64736;50.462;4.850;2023-08-20T12:38:21;4.60;;;2.00;;
76039;SDS011;64736;50.462;4.850;2023-08-20T12:40:47;4.65;;;2.13;;
76039;SDS011;64736;50.462;4.850;2023-08-20T12:43:13;5.82;;;2.25;;
76039;SDS011;64736;50.462;4.850;2023-08-20T12:45:38;5.47;;;2.10;;
76039;SDS011;64736;50.462;4.850;2023-08-20T12:48:04;8.43;;;2.42;;
76039;SDS011;64736;50.462;4.850;2023-08-20T12:50:31;4.20;;;2.20;;
76039;SDS011;64736;50.462;4.850;2023-08-20T12:52:57;4.57;;;2.05;;
76039;SDS011;64736;50.462;4.850;2023-08-20T12:55:23;5.50;;;3.28;;
76039;SDS011;64736;50.462;4.850;2023-08-20T12:57:52;5.60;;;2.30;;
76039;SDS011;64736;50.462;4.850;2023-08-20T13:00:22;4.50;;;2.03;;
76039;SDS011;64736;50.462;4.850;2023-08-20T13:02:52;5.32;;;2.03;;
76039;SDS011;64736;50.462;4.850;2023-08-20T13:05:22;5.25;;;2.28;;
76039;SDS011;64736;50.462;4.850;2023-08-20T13:07:49;4.85;;;2.08;;
76039;SDS011;64736;50.462;4.850;2023-08-20T13:10:15;3.83;;;1.70;;
76039;SDS011;64736;50.462;4.850;2023-08-20T13:12:41;6.53;;;4.72;;
76039;SDS011;64736;50.462;4.850;2023-08-20T13:15:13;3.92;;;1.98;;
76039;SDS011;64736;50.462;4.850;2023-08-20T13:17:39;5.30;;;2.08;;
76039;SDS011;64736;50.462;4.850;2023-08-20T13:20:05;5.88;;;2.08;;
76039;SDS011;64736;50.462;4.850;2023-08-20T13:24:59;5.28;;;2.45;;
76039;SDS011;64736;50.462;4.850;2023-08-20T13:27:24;4.32;;;1.80;;
76039;SDS011;64736;50.462;4.850;2023-08-20T13:29:51;3.83;;;1.55;;
76039;SDS011;64736;50.462;4.850;2023-08-20T13:32:16;4.10;;;1.88;;
76039;SDS011;64736;50.462;4.850;2023-08-20T13:34:42;4.43;;;1.77;;
76039;SDS011;64736;50.462;4.850;2023-08-20T13:37:08;3.90;;;1.75;;
76039;SDS011;64736;50.462;4.850;2023-08-20T13:39:34;4.68;;;1.70;;
76039;SDS011;64736;50.462;4.850;2023-08-20T13:41:59;4.65;;;1.90;;
76039;SDS011;64736;50.462;4.850;2023-08-20T13:44:25;4.53;;;1.70;;
76039;SDS011;64736;50.462;4.850;2023-08-20T13:46:51;4.38;;;1.75;;
76039;SDS011;64736;50.462;4.850;2023-08-20T13:49:16;4.70;;;1.83;;
76039;SDS011;64736;50.462;4.850;2023-08-20T13:51:42;4.88;;;2.10;;
76039;SDS011;64736;50.462;4.850;2023-08-20T13:54:08;4.10;;;1.50;;
76039;SDS011;64736;50.462;4.850;2023-08-20T13:56:34;4.38;;;1.50;;
76039;SDS011;64736;50.462;4.850;2023-08-20T13:58:59;4.45;;;1.73;;
76039;SDS011;64736;50.462;4.850;2023-08-20T14:01:25;4.50;;;1.85;;
76039;SDS011;64736;50.462;4.850;2023-08-20T14:03:51;4.22;;;1.60;;
76039;SDS011;64736;50.462;4.850;2023-08-20T14:06:17;4.93;;;1.80;;
76039;SDS011;64736;50.462;4.850;2023-08-20T14:08:43;4.20;;;1.58;;
76039;SDS011;64736;50.462;4.850;2023-08-20T14:11:08;3.92;;;1.55;;
76039;SDS011;64736;50.462;4.850;2023-08-20T14:13:34;3.70;;;1.58;;
76039;SDS011;64736;50.462;4.850;2023-08-20T14:16:00;4.43;;;1.80;;
76039;SDS011;64736;50.462;4.850;2023-08-20T14:18:26;5.15;;;2.05;;
76039;SDS011;64736;50.462;4.850;2023-08-20T14:20:52;3.50;;;1.63;;
76039;SDS011;64736;50.462;4.850;2023-08-20T14:23:18;4.03;;;1.70;;
76039;SDS011;64736;50.462;4.850;2023-08-20T14:25:43;3.63;;;1.65;;
76039;SDS011;64736;50.462;4.850;2023-08-20T14:28:09;4.65;;;1.70;;
76039;SDS011;64736;50.462;4.850;2023-08-20T14:30:36;3.80;;;1.60;;
76039;SDS011;64736;50.462;4.850;2023-08-20T14:33:05;3.65;;;1.42;;
76039;SDS011;64736;50.462;4.850;2023-08-20T14:35:31;4.72;;;1.50;;
76039;SDS011;64736;50.462;4.850;2023-08-20T14:37:57;6.63;;;1.98;;
76039;SDS011;64736;50.462;4.850;2023-08-20T14:40:23;3.78;;;1.60;;
76039;SDS011;64736;50.462;4.850;2023-08-20T14:42:49;4.82;;;2.40;;
76039;SDS011;64736;50.462;4.850;2023-08-20T14:45:15;4.38;;;1.58;;
76039;SDS011;64736;50.462;4.850;2023-08-20T14:47:41;4.97;;;2.08;;
76039;SDS011;64736;50.462;4.850;2023-08-20T14:50:07;5.22;;;2.25;;
76039;SDS011;64736;50.462;4.850;2023-08-20T14:52:34;3.63;;;1.60;;
76039;SDS011;64736;50.462;4.850;2023-08-20T14:55:00;4.50;;;1.70;;
76039;SDS011;64736;50.462;4.850;2023-08-20T14:57:26;4.90;;;1.80;;
76039;SDS011;64736;50.462;4.850;2023-08-20T14:59:52;5.35;;;1.60;;
76039;SDS011;64736;50.462;4.850;2023-08-20T15:02:18;4.43;;;1.50;;
76039;SDS011;64736;50.462;4.850;2023-08-20T15:04:43;4.38;;;1.60;;
76039;SDS011;64736;50.462;4.850;2023-08-20T15:07:09;3.33;;;1.60;;
76039;SDS011;64736;50.462;4.850;2023-08-20T15:09:35;4.22;;;1.83;;
76039;SDS011;64736;50.462;4.850;2023-08-20T15:12:04;5.05;;;2.10;;